Time;durP1;ratioP1;P1;durP2;ratioP2;P2;SDS_P1;SDS_P2;PMS_P1;PMS_P2;Temp;Humidity;BMP_temperature;BMP_pressure;BME280_temperature;BME280_humidity;BME280_pressure;Samples;Min_cycle;Max_cycle;Signal;HPM_P1;HPM_P2
2021/09/01 13:36:31;;;;;;;;;;;;;;;17.25;79.07;98110.53;4951588;28;19930;-89
2021/09/01 13:41:30;;;;;;;;;;;;;;;17.19;79.29;98111.28;4933641;29;19933;-88
2021/09/01 13:44:03;;;;;;;;;;;;;;;17.18;78.58;98104.16;4902236;29;19922;-90
2021/09/01 13:46:32;;;;;;;;;;;;;;;17.06;79.26;98097.81;4910840;29;19923;-89
2021/09/01 13:48:59;;;;;;;;;;;;;;;17.07;79.28;98102.13;4916682;29;19994;-88
2021/09/01 13:51:26;;;;;;;;;;;;;;;17.04;79.62;98099.34;4903852;29;19929;-89
2021/09/01 13:53:52;;;;;;;;;;;;;;;17.11;79.75;98102.16;4928995;29;19923;-93
2021/09/01 13:56:19;;;;;;;;;;;;;;;17.08;79.88;98100.16;4927804;29;19970;-96
2021/09/01 13:58:45;;;;;;;;;;;;;;;17.14;79.05;98107.69;4915643;29;19927;-89
2021/09/01 14:01:11;;;;;;;;;;;;;;;17.21;78.62;98115.22;4900768;29;19923;-88
2021/09/01 14:03:37;;;;;;;;;;;;;;;17.24;78.53;98099.84;4911266;29;19923;-96
2021/09/01 14:13:35;;;;;;;;;;;;;;;17.17;79.73;98110.88;4848172;29;19945;-96
2021/09/01 14:16:27;;;;;;;;;;;;;;;17.08;79.14;98119.50;4825921;29;19955;-96
2021/09/01 14:19:22;;;;;;;;;;;;;;;17.04;79.53;98113.94;4864300;29;19942;-96
2021/09/01 14:21:57;;;;;;;;;;;;;;;17.06;78.81;98113.56;4864388;29;20384;-96
2021/09/01 14:28:41;;;;;;;;;;;;;;;17.03;80.27;98119.88;4872669;29;20051;-96
2021/09/01 14:31:21;;;;;;;;;;;;;;;17.01;80.07;98119.44;4829056;29;19927;-96
2021/09/01 14:34:46;;;;;;;;;;;;;;;17.02;79.87;98132.06;4773685;29;20323;-93
2021/09/01 14:41:09;;;;;;;;;;;;;;;17.00;80.00;98118.66;4822976;29;19924;-94
2021/09/01 14:43:53;;;;;;;;;;;;;;;17.10;80.43;98117.94;4825843;29;19930;-88
2021/09/01 14:46:20;;;;;;;;;;;;;;;17.29;80.21;98124.34;4851677;29;20461;-86
2021/09/01 14:48:48;;;;;;;;;;;;;;;17.38;79.24;98119.25;4854513;29;20356;-87
2021/09/01 14:51:15;;;;;;;;;;;;;;;17.51;77.87;98130.75;4880470;29;19924;-85
2021/09/01 14:53:41;;;;;;;;;;;;;;;17.63;77.02;98132.41;4890206;29;19971;-87
2021/09/01 14:56:08;;;;;;;;;;;;;;;17.67;76.16;98133.19;4890410;29;19931;-85
2021/09/01 14:58:44;;;;;;;;;;;;;;;17.70;76.50;98133.22;4890717;29;19928;-86
2021/09/01 15:01:22;;;;;;;;;;;;;;;17.74;75.25;98136.78;4881945;29;19949;-86
2021/09/01 15:03:48;;;;;;;;;;;;;;;17.80;76.60;98137.22;4891062;29;19924;-87
2021/09/01 15:06:14;;;;;;;;;;;;;;;17.77;75.62;98141.56;4872271;29;19927;-83
2021/09/01 15:08:44;;;;;;;;;;;;;;;17.67;75.83;98141.50;4895946;29;19923;-89
2021/09/01 15:11:14;;;;;;;;;;;;;;;17.75;76.21;98149.44;4879011;29;19983;-86
2021/09/01 15:13:42;;;;;;;;;;;;;;;17.73;75.25;98148.22;4894333;29;20731;-86
2021/09/01 15:16:13;;;;;;;;;;;;;;;17.58;74.79;98152.88;4919905;29;19966;-87
2021/09/01 15:18:47;;;;;;;;;;;;;;;17.61;74.22;98141.88;4914461;29;20458;-89
2021/09/01 15:21:27;;;;;;;;;;;;;;;17.68;74.53;98148.59;4889056;29;19951;-87
2021/09/01 15:23:58;;;;;;;;;;;;;;;17.63;74.68;98148.97;4892637;29;19927;-87
2021/09/01 15:26:31;;;;;;;;;;;;;;;17.68;74.17;98151.34;4873975;29;20023;-88
2021/09/01 15:29:02;;;;;;;;;;;;;;;17.53;72.80;98145.78;4889456;29;19923;-89
2021/09/01 15:31:33;;;;;;;;;;;;;;;17.47;74.31;98150.09;4888579;29;19962;-88
2021/09/01 15:34:16;;;;;;;;;;;;;;;17.27;72.36;98165.38;4888335;29;20118;-88
2021/09/01 15:36:43;;;;;;;;;;;;;;;17.32;74.37;98167.78;4872351;29;19923;-88
2021/09/01 15:39:09;;;;;;;;;;;;;;;17.38;72.03;98172.56;4887756;29;19975;-89
2021/09/01 15:41:39;;;;;;;;;;;;;;;17.28;73.57;98178.78;4868383;29;19931;-88
2021/09/01 15:44:05;;;;;;;;;;;;;;;17.22;73.12;98174.81;4869177;29;20169;-88
2021/09/01 15:46:42;;;;;;;;;;;;;;;17.20;73.54;98179.13;4852789;29;19924;-89
2021/09/01 15:49:10;;;;;;;;;;;;;;;17.19;73.76;98185.84;4868061;29;20471;-88
2021/09/01 15:51:37;;;;;;;;;;;;;;;17.25;72.56;98178.75;4867734;29;20080;-89
2021/09/01 15:54:08;;;;;;;;;;;;;;;17.23;71.76;98192.19;4862851;29;20452;-83
2021/09/01 15:56:36;;;;;;;;;;;;;;;17.28;70.85;98180.75;4849567;29;19924;-85
2021/09/01 15:59:02;;;;;;;;;;;;;;;17.38;70.97;98182.78;4849597;29;20093;-82
2021/09/01 16:01:31;;;;;;;;;;;;;;;17.40;71.18;98180.44;4848381;29;19923;-82
2021/09/01 16:03:57;;;;;;;;;;;;;;;17.32;71.16;98187.13;4848403;29;19924;-82
2021/09/01 16:06:23;;;;;;;;;;;;;;;17.27;72.14;98187.47;4847867;29;19923;-83
2021/09/01 16:08:50;;;;;;;;;;;;;;;17.12;72.44;98195.66;4847722;29;19942;-82
2021/09/01 16:11:21;;;;;;;;;;;;;;;17.09;71.36;98209.44;4847647;29;20370;-82
2021/09/01 16:14:02;;;;;;;;;;;;;;;17.04;70.94;98207.03;4847134;29;19920;-82
2021/09/01 16:16:30;;;;;;;;;;;;;;;17.10;70.40;98205.50;4847091;29;19924;-83
2021/09/01 16:19:00;;;;;;;;;;;;;;;17.05;69.18;98211.38;4846944;29;19930;-82
2021/09/01 16:21:30;;;;;;;;;;;;;;;17.07;70.73;98212.56;4846616;29;19974;-82
2021/09/01 16:23:57;;;;;;;;;;;;;;;17.04;69.08;98216.09;4846458;29;19928;-84
2021/09/01 16:26:25;;;;;;;;;;;;;;;17.01;69.98;98225.16;4846216;29;19924;-81
2021/09/01 16:28:53;;;;;;;;;;;;;;;17.01;69.75;98219.63;4845992;29;19931;-84
2021/09/01 16:31:20;;;;;;;;;;;;;;;17.01;69.55;98222.38;4848143;29;19923;-81
2021/09/01 16:33:47;;;;;;;;;;;;;;;17.03;70.18;98224.78;4853788;29;19928;-82
2021/09/01 16:36:13;;;;;;;;;;;;;;;17.01;69.39;98238.16;4845627;29;19924;-82
2021/09/01 16:38:40;;;;;;;;;;;;;;;16.95;69.77;98239.69;4884713;29;19923;-82
2021/09/01 16:41:09;;;;;;;;;;;;;;;17.05;70.19;98241.75;4899944;29;19923;-82
2021/09/01 16:43:49;;;;;;;;;;;;;;;17.05;69.29;98252.78;5075927;27;19969;-86
2021/09/01 16:46:17;;;;;;;;;;;;;;;17.08;68.84;98260.31;5069311;28;19924;-89
2021/09/01 16:48:43;;;;;;;;;;;;;;;17.11;68.97;98248.50;5075689;28;19924;-88
2021/09/01 16:51:13;;;;;;;;;;;;;;;16.99;69.88;98249.59;5073717;28;19924;-89
2021/09/01 16:53:43;;;;;;;;;;;;;;;16.79;67.70;98259.28;5075034;28;19943;-88
2021/09/01 16:56:11;;;;;;;;;;;;;;;16.82;69.34;98256.56;5074893;28;19947;-89
2021/09/01 16:58:56;;;;;;;;;;;;;;;16.67;70.92;98266.63;5074285;28;19924;-88
2021/09/01 17:01:28;;;;;;;;;;;;;;;16.71;69.85;98265.88;5074886;28;19925;-89
2021/09/01 17:04:03;;;;;;;;;;;;;;;16.60;68.25;98263.78;5074258;28;19925;-88
2021/09/01 17:06:38;;;;;;;;;;;;;;;16.73;69.88;98272.59;5073807;28;19946;-88
2021/09/01 17:09:06;;;;;;;;;;;;;;;16.66;69.25;98275.28;5074298;28;19924;-89
2021/09/01 17:11:32;;;;;;;;;;;;;;;16.66;69.20;98273.31;5067122;28;20533;-90
2021/09/01 17:13:59;;;;;;;;;;;;;;;16.57;69.01;98278.34;5059809;28;19947;-88
2021/09/01 17:16:25;;;;;;;;;;;;;;;16.58;68.78;98290.16;5051909;28;19924;-88
2021/09/01 17:18:52;;;;;;;;;;;;;;;16.56;69.48;98289.78;5052757;28;20011;-87
2021/09/01 17:21:23;;;;;;;;;;;;;;;16.55;68.63;98291.72;5052968;28;20409;-87
2021/09/01 17:23:49;;;;;;;;;;;;;;;16.57;68.63;98288.59;5052325;28;20130;-86
2021/09/01 17:26:16;;;;;;;;;;;;;;;16.48;67.85;98297.16;5051998;28;19968;-89
2021/09/01 17:28:51;;;;;;;;;;;;;;;16.44;68.58;98297.13;5051684;28;20423;-88
2021/09/01 17:31:24;;;;;;;;;;;;;;;16.44;68.27;98296.31;5051346;28;19983;-87
2021/09/01 17:33:50;;;;;;;;;;;;;;;16.38;68.23;98297.81;5051270;28;19932;-89
2021/09/01 17:36:16;;;;;;;;;;;;;;;16.20;67.73;98298.41;5065606;28;19973;-86
2021/09/01 17:38:46;;;;;;;;;;;;;;;16.10;70.05;98298.28;5061745;28;19928;-86
2021/09/01 17:41:16;;;;;;;;;;;;;;;16.06;68.62;98300.19;5100896;28;20011;-83
2021/09/01 17:43:44;;;;;;;;;;;;;;;16.06;68.68;98300.19;5065197;28;20603;-79
2021/09/01 17:46:10;;;;;;;;;;;;;;;16.15;68.15;98293.22;5084412;28;20140;-80
2021/09/01 17:48:39;;;;;;;;;;;;;;;16.19;67.95;98296.03;5065450;28;19924;-80
2021/09/01 17:51:08;;;;;;;;;;;;;;;16.01;68.09;98295.00;5084057;28;20538;-88
2021/09/01 17:53:35;;;;;;;;;;;;;;;15.87;68.98;98293.66;5060843;28;20077;-80
2021/09/01 17:56:05;;;;;;;;;;;;;;;15.90;67.72;98297.63;5069987;28;20001;-95
2021/09/01 17:58:32;;;;;;;;;;;;;;;15.73;68.67;98299.78;5051173;28;19924;-84
2021/09/01 18:00:58;;;;;;;;;;;;;;;15.65;68.67;98303.53;5052150;28;20017;-85
2021/09/01 18:03:25;;;;;;;;;;;;;;;15.66;69.98;98299.66;5052714;28;19928;-85
2021/09/01 18:05:51;;;;;;;;;;;;;;;15.67;69.34;98289.44;5066742;28;19924;-84
2021/09/01 18:08:18;;;;;;;;;;;;;;;15.54;70.25;98294.34;5054062;28;19971;-83
2021/09/01 18:10:45;;;;;;;;;;;;;;;15.56;70.42;98294.75;5047303;28;19924;-84
2021/09/01 18:13:12;;;;;;;;;;;;;;;15.57;69.42;98298.31;5051918;28;19985;-83
2021/09/01 18:15:39;;;;;;;;;;;;;;;15.47;70.42;98294.25;5064816;28;19990;-79
2021/09/01 18:18:06;;;;;;;;;;;;;;;15.57;70.61;98293.59;5054187;28;19932;-79
2021/09/01 18:20:32;;;;;;;;;;;;;;;15.53;70.42;98298.28;5063446;28;20026;-94
2021/09/01 18:22:59;;;;;;;;;;;;;;;15.58;70.11;98300.69;5053822;28;19936;-84
2021/09/01 18:25:25;;;;;;;;;;;;;;;15.64;69.93;98295.66;5063770;28;19928;-78
2021/09/01 18:27:51;;;;;;;;;;;;;;;15.57;69.65;98295.56;5056368;28;19942;-87
2021/09/01 18:30:17;;;;;;;;;;;;;;;15.42;69.76;98300.03;5079974;28;19931;-82
2021/09/01 18:32:44;;;;;;;;;;;;;;;15.40;69.49;98302.38;5080065;28;19931;-93
2021/09/01 18:35:09;;;;;;;;;;;;;;;15.36;69.34;98305.06;5066413;28;19920;-87
2021/09/01 18:37:35;;;;;;;;;;;;;;;15.33;70.20;98299.50;5073668;28;19935;-93
2021/09/01 18:40:01;;;;;;;;;;;;;;;15.37;70.61;98301.16;5074737;28;20308;-84
2021/09/01 18:42:31;;;;;;;;;;;;;;;15.38;71.00;98299.19;5073266;28;19924;-78
2021/09/01 18:44:57;;;;;;;;;;;;;;;15.28;69.19;98295.13;5067662;28;19967;-76
2021/09/01 18:47:32;;;;;;;;;;;;;;;15.33;69.80;98291.25;5072314;28;19924;-82
2021/09/01 18:50:01;;;;;;;;;;;;;;;15.30;69.96;98297.47;5072844;28;19928;-79
2021/09/01 18:52:31;;;;;;;;;;;;;;;15.23;69.80;98292.66;5082559;28;19936;-79
2021/09/01 18:55:01;;;;;;;;;;;;;;;15.22;71.22;98308.38;5087480;28;20010;-80
2021/09/01 18:57:30;;;;;;;;;;;;;;;15.15;70.00;98299.22;5071963;28;19928;-75
2021/09/01 19:00:06;;;;;;;;;;;;;;;15.00;69.57;98295.44;5071299;28;20476;-76
2021/09/01 19:02:38;;;;;;;;;;;;;;;14.91;70.27;98301.19;5070476;28;19928;-77
2021/09/01 19:05:19;;;;;;;;;;;;;;;14.94;71.39;98300.47;5077833;28;20389;-76
2021/09/01 19:10:44;;;;;;;;;;;;;;;14.98;70.95;98289.50;5614594;22;19930;-92
2021/09/01 19:13:14;;;;;;;;;;;;;;;14.99;71.75;98297.38;4949274;29;19926;-93
2021/09/01 19:15:44;;;;;;;;;;;;;;;15.02;71.13;98293.91;4960925;28;20415;-92
2021/09/01 19:18:14;;;;;;;;;;;;;;;15.03;70.92;98303.78;4955253;29;19969;-91
2021/09/01 19:20:41;;;;;;;;;;;;;;;14.94;71.36;98310.69;4951206;28;20000;-96
2021/09/01 19:23:07;;;;;;;;;;;;;;;14.90;71.24;98307.88;4969927;28;20000;-93
2021/09/01 19:25:33;;;;;;;;;;;;;;;14.83;71.35;98313.22;4970608;28;20434;-91
2021/09/01 19:27:59;;;;;;;;;;;;;;;14.75;71.03;98312.28;4940020;28;20016;-95
2021/09/01 19:30:26;;;;;;;;;;;;;;;14.69;71.04;98313.75;4942300;28;19926;-94
2021/09/01 19:32:53;;;;;;;;;;;;;;;14.61;71.47;98305.75;4958552;28;19926;-92
2021/09/01 19:35:20;;;;;;;;;;;;;;;14.57;70.84;98308.44;4942574;28;19965;-93
2021/09/01 19:37:48;;;;;;;;;;;;;;;14.47;71.73;98314.47;4958301;28;19929;-95
2021/09/01 19:40:15;;;;;;;;;;;;;;;14.42;72.65;98318.31;4938418;29;19926;-95
2021/09/01 19:42:42;;;;;;;;;;;;;;;14.36;72.72;98307.97;4966918;28;19926;-93
2021/09/01 19:45:09;;;;;;;;;;;;;;;14.29;71.26;98309.41;4957942;28;19930;-92
2021/09/01 19:47:35;;;;;;;;;;;;;;;14.34;71.66;98311.91;4940819;28;20410;-95
2021/09/01 19:50:03;;;;;;;;;;;;;;;14.29;72.00;98316.88;4973573;28;19930;-94
2021/09/01 19:52:29;;;;;;;;;;;;;;;14.17;72.73;98309.59;4973902;28;19922;-95
2021/09/01 19:55:01;;;;;;;;;;;;;;;14.16;73.00;98312.69;4957872;28;19926;-92
2021/09/01 19:57:28;;;;;;;;;;;;;;;14.16;72.92;98305.22;4957760;28;19969;-94
2021/09/01 19:59:57;;;;;;;;;;;;;;;14.12;72.31;98309.06;4950668;29;20379;-94
2021/09/01 20:02:23;;;;;;;;;;;;;;;14.06;72.15;98317.59;4955583;28;19932;-96
2021/09/01 20:04:49;;;;;;;;;;;;;;;13.97;72.52;98319.78;4941890;28;19926;-92
2021/09/01 20:07:15;;;;;;;;;;;;;;;13.97;72.24;98317.03;4973912;28;20319;-94
2021/09/01 20:09:41;;;;;;;;;;;;;;;13.94;72.71;98328.72;4941972;28;19926;-96
2021/09/01 20:12:07;;;;;;;;;;;;;;;13.97;72.73;98327.19;4941526;28;20346;-94
2021/09/01 20:14:34;;;;;;;;;;;;;;;13.96;74.00;98329.16;4937902;29;20435;-94
2021/09/01 20:17:00;;;;;;;;;;;;;;;13.91;73.42;98334.13;4971829;28;19985;-93
2021/09/01 20:19:27;;;;;;;;;;;;;;;13.88;73.02;98338.41;4938362;29;20016;-93
2021/09/01 20:21:54;;;;;;;;;;;;;;;13.90;73.00;98332.53;4938276;29;19926;-94
2021/09/01 20:24:21;;;;;;;;;;;;;;;13.82;72.99;98337.88;4970969;28;19927;-96
2021/09/01 20:26:50;;;;;;;;;;;;;;;13.80;73.28;98331.94;4938704;29;19927;-94
2021/09/01 20:29:16;;;;;;;;;;;;;;;13.76;73.18;98336.56;4938671;28;19949;-93
2021/09/01 20:31:42;;;;;;;;;;;;;;;13.72;73.26;98330.19;4940862;28;20339;-93
2021/09/01 20:34:09;;;;;;;;;;;;;;;13.68;74.02;98334.81;4940836;28;20407;-95
2021/09/01 20:36:37;;;;;;;;;;;;;;;13.66;73.20;98342.59;4941742;28;20383;-94
2021/09/01 20:39:04;;;;;;;;;;;;;;;13.64;73.58;98350.38;4957157;28;20461;-95
2021/09/01 20:41:30;;;;;;;;;;;;;;;13.61;73.27;98342.91;4973226;28;20358;-93
2021/09/01 20:44:07;;;;;;;;;;;;;;;13.61;73.45;98342.91;4940529;28;19930;-94
2021/09/01 20:46:41;;;;;;;;;;;;;;;13.56;72.99;98343.16;4941380;28;20032;-96
2021/09/01 20:49:11;;;;;;;;;;;;;;;13.54;73.25;98340.78;4941244;28;19926;-95
2021/09/01 20:51:38;;;;;;;;;;;;;;;13.51;73.16;98346.97;4957415;28;19972;-96
2021/09/01 20:54:08;;;;;;;;;;;;;;;13.48;74.03;98347.69;4928312;29;19926;-93
2021/09/01 20:56:37;;;;;;;;;;;;;;;13.46;73.33;98354.69;4954055;28;20310;-94
2021/09/01 20:59:03;;;;;;;;;;;;;;;13.45;73.54;98348.41;4953267;29;20504;-96
2021/09/01 21:01:30;;;;;;;;;;;;;;;13.44;72.94;98346.00;4922329;29;20017;-93
2021/09/01 21:03:59;;;;;;;;;;;;;;;13.42;73.86;98343.63;4950326;28;20029;-94
2021/09/01 21:06:25;;;;;;;;;;;;;;;13.44;73.30;98344.03;4941283;28;20399;-94
2021/09/01 21:08:53;;;;;;;;;;;;;;;13.40;73.50;98341.22;4941004;28;19973;-95
2021/09/01 21:11:19;;;;;;;;;;;;;;;13.38;74.29;98340.00;4940861;28;19926;-93
2021/09/01 21:13:45;;;;;;;;;;;;;;;13.33;73.44;98330.06;4937957;28;20013;-93
2021/09/01 21:16:11;;;;;;;;;;;;;;;13.35;74.09;98343.44;4957009;28;20069;-93
2021/09/01 21:18:44;;;;;;;;;;;;;;;13.34;74.18;98348.16;4940907;28;20080;-93
2021/09/01 21:21:13;;;;;;;;;;;;;;;13.31;74.50;98354.34;4941096;28;20308;-95
2021/09/01 21:23:40;;;;;;;;;;;;;;;13.27;74.34;98342.47;4940484;28;19926;-93
2021/09/01 21:26:07;;;;;;;;;;;;;;;13.26;74.93;98351.06;4940853;28;20411;-95
2021/09/01 21:28:33;;;;;;;;;;;;;;;13.24;74.09;98337.66;4941720;28;19941;-93
2021/09/01 21:31:00;;;;;;;;;;;;;;;13.25;74.66;98338.50;4945202;28;19926;-95
2021/09/01 21:33:27;;;;;;;;;;;;;;;13.21;74.77;98343.03;4943726;28;20287;-93
2021/09/01 21:35:53;;;;;;;;;;;;;;;13.20;74.77;98344.22;4944389;28;19925;-94
2021/09/01 21:38:19;;;;;;;;;;;;;;;13.21;74.90;98348.53;4976486;28;19941;-94
2021/09/01 21:40:47;;;;;;;;;;;;;;;13.15;75.22;98345.28;4960648;28;19926;-94
2021/09/01 21:43:13;;;;;;;;;;;;;;;13.15;75.13;98346.06;4944107;28;19926;-93
2021/09/01 21:45:40;;;;;;;;;;;;;;;13.12;74.60;98345.97;4944108;28;19932;-94
2021/09/01 21:48:07;;;;;;;;;;;;;;;13.10;75.45;98343.56;4960758;28;20032;-94
2021/09/01 21:50:33;;;;;;;;;;;;;;;13.08;75.30;98342.34;4944647;28;19926;-93
2021/09/01 21:52:59;;;;;;;;;;;;;;;13.06;75.59;98341.91;4944157;28;19926;-96
2021/09/01 21:55:25;;;;;;;;;;;;;;;13.05;75.29;98338.38;4944419;28;19933;-94
2021/09/01 21:57:51;;;;;;;;;;;;;;;13.05;75.74;98343.84;4943913;28;19926;-94
2021/09/01 22:00:18;;;;;;;;;;;;;;;13.04;75.87;98339.50;4957297;29;19922;-93
2021/09/01 22:02:45;;;;;;;;;;;;;;;13.02;76.15;98335.53;4972957;28;19934;-96
2021/09/01 22:05:12;;;;;;;;;;;;;;;13.02;75.81;98338.28;4940800;28;20144;-94
2021/09/01 22:07:38;;;;;;;;;;;;;;;12.96;75.65;98336.94;4942056;28;19930;-93
2021/09/01 22:10:06;;;;;;;;;;;;;;;12.92;75.99;98340.38;4940709;29;19933;-94
2021/09/01 22:12:34;;;;;;;;;;;;;;;12.92;75.83;98340.38;4924877;29;20001;-93
2021/09/01 22:15:01;;;;;;;;;;;;;;;12.94;75.92;98345.50;4940323;29;19926;-94
2021/09/01 22:17:27;;;;;;;;;;;;;;;12.98;75.82;98351.91;4944151;28;19989;-93
2021/09/01 22:19:54;;;;;;;;;;;;;;;12.97;75.60;98347.56;4943220;28;19929;-94
2021/09/01 22:22:19;;;;;;;;;;;;;;;13.00;75.65;98348.78;4943576;28;19930;-92
2021/09/01 22:24:46;;;;;;;;;;;;;;;12.95;75.97;98358.09;4959750;28;19974;-93
2021/09/01 22:27:12;;;;;;;;;;;;;;;12.90;76.12;98345.41;4960127;28;19926;-95
2021/09/01 22:29:39;;;;;;;;;;;;;;;12.88;76.03;98341.44;4943424;28;20382;-94
2021/09/01 22:32:05;;;;;;;;;;;;;;;12.94;75.43;98345.50;4943972;28;19984;-94
2021/09/01 22:34:31;;;;;;;;;;;;;;;12.91;75.85;98351.69;4943090;28;20396;-93
2021/09/01 22:36:59;;;;;;;;;;;;;;;12.88;75.74;98349.66;4943764;28;19926;-93
2021/09/01 22:39:26;;;;;;;;;;;;;;;12.90;76.01;98358.34;4939920;28;19926;-94
2021/09/01 22:41:51;;;;;;;;;;;;;;;12.83;76.11;98344.44;4924555;29;19993;-93
2021/09/01 22:44:19;;;;;;;;;;;;;;;12.88;75.72;98352.41;4956093;28;19933;-94
2021/09/01 22:46:45;;;;;;;;;;;;;;;12.87;76.26;98339.84;4924233;29;19926;-93
2021/09/01 22:49:12;;;;;;;;;;;;;;;12.86;76.57;98341.00;4958791;28;20021;-93
2021/09/01 22:51:38;;;;;;;;;;;;;;;12.86;76.46;98336.31;4942992;28;19926;-94
2021/09/01 22:54:04;;;;;;;;;;;;;;;12.88;75.66;98336.75;4958878;28;19926;-93
2021/09/01 22:56:29;;;;;;;;;;;;;;;12.88;75.86;98339.50;4943166;28;19973;-94
2021/09/01 22:58:55;;;;;;;;;;;;;;;12.88;75.71;98341.44;4959239;28;19929;-94
2021/09/01 23:01:21;;;;;;;;;;;;;;;12.91;76.22;98344.28;4942507;28;20426;-94
2021/09/01 23:03:47;;;;;;;;;;;;;;;12.96;76.04;98336.94;4942616;28;20118;-93
2021/09/01 23:06:13;;;;;;;;;;;;;;;12.90;76.16;98353.66;4943244;28;19926;-94
2021/09/01 23:08:39;;;;;;;;;;;;;;;12.86;76.13;98344.53;4958969;28;19926;-93
2021/09/01 23:11:05;;;;;;;;;;;;;;;12.82;76.17;98335.41;4956945;28;20383;-93
2021/09/01 23:13:30;;;;;;;;;;;;;;;12.84;75.76;98346.81;4974681;28;19926;-93
2021/09/01 23:15:56;;;;;;;;;;;;;;;12.84;76.01;98348.78;4942787;28;19926;-94
2021/09/01 23:18:22;;;;;;;;;;;;;;;12.82;75.87;98351.88;4959198;28;19922;-94
2021/09/01 23:20:50;;;;;;;;;;;;;;;12.85;75.76;98356.66;4943216;28;20280;-93
2021/09/01 23:23:16;;;;;;;;;;;;;;;12.78;76.16;98348.25;4958095;28;19926;-94
2021/09/01 23:25:43;;;;;;;;;;;;;;;12.73;76.32;98358.66;4943182;28;20395;-94
2021/09/01 23:28:10;;;;;;;;;;;;;;;12.74;75.77;98354.78;4959054;28;20417;-95
2021/09/01 23:30:36;;;;;;;;;;;;;;;12.74;76.32;98355.56;4942558;28;19930;-94
2021/09/01 23:33:03;;;;;;;;;;;;;;;12.69;76.35;98342.91;4942270;28;19926;-93
2021/09/01 23:35:29;;;;;;;;;;;;;;;12.69;76.24;98350.34;4943049;28;19926;-94
2021/09/01 23:37:55;;;;;;;;;;;;;;;12.72;76.24;98349.66;4942062;28;19926;-94
2021/09/01 23:40:21;;;;;;;;;;;;;;;12.72;76.00;98343.38;4942795;28;20441;-93
2021/09/01 23:42:48;;;;;;;;;;;;;;;12.70;76.48;98343.72;4938949;28;20025;-94
2021/09/01 23:45:13;;;;;;;;;;;;;;;12.70;75.89;98333.53;4923800;29;19934;-93
2021/09/01 23:47:40;;;;;;;;;;;;;;;12.64;76.03;98337.66;4946962;28;19922;-94
2021/09/01 23:50:06;;;;;;;;;;;;;;;12.62;75.99;98334.50;4942355;28;19925;-94
2021/09/01 23:52:32;;;;;;;;;;;;;;;12.58;76.49;98339.09;4941713;28;19926;-94
2021/09/01 23:54:57;;;;;;;;;;;;;;;12.59;75.98;98337.16;4924183;29;19931;-94
2021/09/01 23:57:24;;;;;;;;;;;;;;;12.67;76.36;98338.91;4938823;29;19961;-94
2021/09/01 23:59:50;;;;;;;;;;;;;;;12.61;75.83;98338.38;4922925;29;20515;-95
